Eckville, Pennsylvania
Current Conditions -  °F | °C
As of 4:54 AM on Friday 24 Oct 2014 (Local Time) from KRDG Reporting Station
Overcast Overcast  
Wind Chill: 56°   Ceiling: 3000
Heat Index: 56°   Visibility: 10mi
Dew Point: 44°   Wind: 14mph
Humidity: 64%   Direction: 340°NNW
Pressure: 29.86"   Gusts: 23mph
Location:  40.6329°N, 75.8768°W
Report Text: KRDG 240854Z 34012G20KT 10SM OVC030 13/07 A2986 RMK AO2 SLP116 T01330067 50006
Loading
Personal Weather Stations






























Interactive Weather Map
Tropical Storm Tracking
New forecast layout! Learn more

10-Day Weather Forecast

Advertisements
Track Severe Weather on mobile